sensor_id;sensor_type;location;lat;lon;timestamp;P1;durP1;ratioP1;P2;durP2;ratioP2
43118;SDS011;28729;49.838;8.650;2022-07-29T00:02:48;6.23;;;1.97;;
43118;SDS011;28729;49.838;8.650;2022-07-29T00:06:50;4.28;;;2.15;;
43118;SDS011;28729;49.838;8.650;2022-07-29T00:10:52;6.27;;;2.93;;
43118;SDS011;28729;49.838;8.650;2022-07-29T00:14:54;4.20;;;2.05;;
43118;SDS011;28729;49.838;8.650;2022-07-29T00:18:56;4.85;;;2.28;;
43118;SDS011;28729;49.838;8.650;2022-07-29T00:23:02;4.75;;;2.25;;
43118;SDS011;28729;49.838;8.650;2022-07-29T00:27:04;4.07;;;2.30;;
43118;SDS011;28729;49.838;8.650;2022-07-29T00:31:06;4.03;;;1.92;;
43118;SDS011;28729;49.838;8.650;2022-07-29T00:35:09;5.30;;;2.08;;
43118;SDS011;28729;49.838;8.650;2022-07-29T00:39:29;3.05;;;2.28;;
43118;SDS011;28729;49.838;8.650;2022-07-29T00:43:31;10.30;;;2.47;;
43118;SDS011;28729;49.838;8.650;2022-07-29T00:47:33;7.00;;;2.70;;
43118;SDS011;28729;49.838;8.650;2022-07-29T00:51:35;3.88;;;2.30;;
43118;SDS011;28729;49.838;8.650;2022-07-29T00:55:38;6.55;;;2.40;;
43118;SDS011;28729;49.838;8.650;2022-07-29T00:59:39;8.48;;;2.63;;
43118;SDS011;28729;49.838;8.650;2022-07-29T01:03:41;4.07;;;2.33;;
43118;SDS011;28729;49.838;8.650;2022-07-29T01:07:43;5.80;;;2.20;;
43118;SDS011;28729;49.838;8.650;2022-07-29T01:11:46;6.10;;;2.33;;
43118;SDS011;28729;49.838;8.650;2022-07-29T01:19:58;4.97;;;2.15;;
43118;SDS011;28729;49.838;8.650;2022-07-29T01:32:47;5.25;;;2.00;;
43118;SDS011;28729;49.838;8.650;2022-07-29T01:41:17;6.55;;;1.90;;
43118;SDS011;28729;49.838;8.650;2022-07-29T01:45:26;7.30;;;2.17;;
43118;SDS011;28729;49.838;8.650;2022-07-29T01:49:35;6.68;;;1.95;;
43118;SDS011;28729;49.838;8.650;2022-07-29T01:53:46;7.15;;;1.95;;
43118;SDS011;28729;49.838;8.650;2022-07-29T01:57:56;3.70;;;1.98;;
43118;SDS011;28729;49.838;8.650;2022-07-29T02:02:00;4.70;;;1.98;;
43118;SDS011;28729;49.838;8.650;2022-07-29T02:06:02;3.80;;;1.88;;
43118;SDS011;28729;49.838;8.650;2022-07-29T02:10:07;4.05;;;1.77;;
43118;SDS011;28729;49.838;8.650;2022-07-29T02:14:11;5.93;;;2.20;;
43118;SDS011;28729;49.838;8.650;2022-07-29T02:18:16;3.83;;;1.77;;
43118;SDS011;28729;49.838;8.650;2022-07-29T02:22:19;6.45;;;1.92;;
43118;SDS011;28729;49.838;8.650;2022-07-29T02:26:23;4.90;;;2.50;;
43118;SDS011;28729;49.838;8.650;2022-07-29T02:30:28;6.47;;;2.70;;
43118;SDS011;28729;49.838;8.650;2022-07-29T02:34:31;7.22;;;2.25;;
43118;SDS011;28729;49.838;8.650;2022-07-29T02:38:35;10.40;;;2.42;;
43118;SDS011;28729;49.838;8.650;2022-07-29T02:42:53;7.22;;;2.33;;
43118;SDS011;28729;49.838;8.650;2022-07-29T02:51:46;11.27;;;2.65;;
43118;SDS011;28729;49.838;8.650;2022-07-29T02:55:56;7.63;;;2.90;;
43118;SDS011;28729;49.838;8.650;2022-07-29T03:00:02;5.20;;;2.25;;
43118;SDS011;28729;49.838;8.650;2022-07-29T03:04:08;6.35;;;2.53;;
43118;SDS011;28729;49.838;8.650;2022-07-29T03:08:13;6.60;;;2.70;;
43118;SDS011;28729;49.838;8.650;2022-07-29T03:12:16;14.23;;;2.53;;
43118;SDS011;28729;49.838;8.650;2022-07-29T03:16:19;3.28;;;2.17;;
43118;SDS011;28729;49.838;8.650;2022-07-29T03:24:26;5.22;;;2.67;;
43118;SDS011;28729;49.838;8.650;2022-07-29T03:28:31;10.30;;;2.55;;
43118;SDS011;28729;49.838;8.650;2022-07-29T03:32:32;6.32;;;2.22;;
43118;SDS011;28729;49.838;8.650;2022-07-29T03:36:34;7.23;;;2.70;;
43118;SDS011;28729;49.838;8.650;2022-07-29T03:40:44;5.55;;;2.50;;
43118;SDS011;28729;49.838;8.650;2022-07-29T03:44:50;5.90;;;2.30;;
43118;SDS011;28729;49.838;8.650;2022-07-29T03:48:55;6.75;;;2.30;;
43118;SDS011;28729;49.838;8.650;2022-07-29T03:53:01;5.53;;;2.30;;
43118;SDS011;28729;49.838;8.650;2022-07-29T03:57:04;7.25;;;2.30;;
43118;SDS011;28729;49.838;8.650;2022-07-29T04:05:12;7.05;;;2.58;;
43118;SDS011;28729;49.838;8.650;2022-07-29T04:09:14;6.55;;;2.55;;
43118;SDS011;28729;49.838;8.650;2022-07-29T04:13:18;6.80;;;3.03;;
43118;SDS011;28729;49.838;8.650;2022-07-29T04:17:22;5.47;;;2.67;;
43118;SDS011;28729;49.838;8.650;2022-07-29T04:21:24;6.50;;;2.50;;
43118;SDS011;28729;49.838;8.650;2022-07-29T04:25:26;8.48;;;2.47;;
43118;SDS011;28729;49.838;8.650;2022-07-29T04:29:27;6.95;;;2.92;;
43118;SDS011;28729;49.838;8.650;2022-07-29T04:33:29;9.43;;;2.75;;
43118;SDS011;28729;49.838;8.650;2022-07-29T04:37:31;7.45;;;2.80;;
43118;SDS011;28729;49.838;8.650;2022-07-29T04:41:33;5.00;;;2.37;;
43118;SDS011;28729;49.838;8.650;2022-07-29T04:45:35;5.65;;;2.45;;
43118;SDS011;28729;49.838;8.650;2022-07-29T04:49:37;5.97;;;2.75;;
43118;SDS011;28729;49.838;8.650;2022-07-29T04:57:41;9.93;;;2.50;;
43118;SDS011;28729;49.838;8.650;2022-07-29T05:01:43;5.88;;;2.55;;
43118;SDS011;28729;49.838;8.650;2022-07-29T05:05:44;11.63;;;3.22;;
43118;SDS011;28729;49.838;8.650;2022-07-29T05:09:46;13.93;;;3.10;;
43118;SDS011;28729;49.838;8.650;2022-07-29T05:13:48;7.10;;;3.15;;
43118;SDS011;28729;49.838;8.650;2022-07-29T05:17:49;5.90;;;3.00;;
43118;SDS011;28729;49.838;8.650;2022-07-29T05:21:51;7.30;;;3.38;;
43118;SDS011;28729;49.838;8.650;2022-07-29T05:25:53;5.82;;;2.88;;
43118;SDS011;28729;49.838;8.650;2022-07-29T05:29:54;7.30;;;2.78;;
43118;SDS011;28729;49.838;8.650;2022-07-29T05:33:56;7.32;;;3.17;;
43118;SDS011;28729;49.838;8.650;2022-07-29T05:37:58;7.28;;;3.10;;
43118;SDS011;28729;49.838;8.650;2022-07-29T05:41:59;7.20;;;2.58;;
43118;SDS011;28729;49.838;8.650;2022-07-29T05:46:01;6.93;;;3.55;;
43118;SDS011;28729;49.838;8.650;2022-07-29T05:50:03;5.47;;;2.95;;
43118;SDS011;28729;49.838;8.650;2022-07-29T05:54:05;9.75;;;3.05;;
43118;SDS011;28729;49.838;8.650;2022-07-29T05:58:07;7.60;;;2.95;;
43118;SDS011;28729;49.838;8.650;2022-07-29T06:02:09;7.35;;;3.25;;
43118;SDS011;28729;49.838;8.650;2022-07-29T06:06:10;7.95;;;3.45;;
43118;SDS011;28729;49.838;8.650;2022-07-29T06:10:12;5.72;;;3.45;;
43118;SDS011;28729;49.838;8.650;2022-07-29T06:14:14;7.37;;;3.07;;
43118;SDS011;28729;49.838;8.650;2022-07-29T06:18:17;4.82;;;2.60;;
43118;SDS011;28729;49.838;8.650;2022-07-29T06:22:18;6.20;;;3.08;;
43118;SDS011;28729;49.838;8.650;2022-07-29T06:26:24;9.05;;;2.95;;
43118;SDS011;28729;49.838;8.650;2022-07-29T06:30:32;12.98;;;3.83;;
43118;SDS011;28729;49.838;8.650;2022-07-29T06:34:34;8.73;;;3.13;;
43118;SDS011;28729;49.838;8.650;2022-07-29T06:38:37;14.38;;;3.40;;
43118;SDS011;28729;49.838;8.650;2022-07-29T06:42:45;11.25;;;3.25;;
43118;SDS011;28729;49.838;8.650;2022-07-29T06:46:47;7.35;;;3.58;;
43118;SDS011;28729;49.838;8.650;2022-07-29T06:50:51;5.60;;;2.67;;
43118;SDS011;28729;49.838;8.650;2022-07-29T06:54:52;6.18;;;3.08;;
43118;SDS011;28729;49.838;8.650;2022-07-29T06:58:56;9.73;;;3.15;;
43118;SDS011;28729;49.838;8.650;2022-07-29T07:02:57;7.32;;;2.80;;
43118;SDS011;28729;49.838;8.650;2022-07-29T07:06:59;8.70;;;3.25;;
43118;SDS011;28729;49.838;8.650;2022-07-29T07:11:01;8.00;;;3.35;;
43118;SDS011;28729;49.838;8.650;2022-07-29T07:15:03;8.00;;;3.03;;
43118;SDS011;28729;49.838;8.650;2022-07-29T07:19:05;6.85;;;3.30;;
43118;SDS011;28729;49.838;8.650;2022-07-29T07:23:06;8.85;;;3.50;;
43118;SDS011;28729;49.838;8.650;2022-07-29T07:27:08;8.60;;;3.43;;
43118;SDS011;28729;49.838;8.650;2022-07-29T07:31:10;7.00;;;3.10;;
43118;SDS011;28729;49.838;8.650;2022-07-29T07:35:13;6.28;;;3.13;;
43118;SDS011;28729;49.838;8.650;2022-07-29T07:39:15;8.32;;;3.60;;
43118;SDS011;28729;49.838;8.650;2022-07-29T07:43:18;6.07;;;3.30;;
43118;SDS011;28729;49.838;8.650;2022-07-29T07:47:21;6.47;;;3.15;;
43118;SDS011;28729;49.838;8.650;2022-07-29T07:51:28;7.45;;;3.28;;
43118;SDS011;28729;49.838;8.650;2022-07-29T07:55:30;9.30;;;3.40;;
43118;SDS011;28729;49.838;8.650;2022-07-29T07:59:52;7.95;;;3.15;;
43118;SDS011;28729;49.838;8.650;2022-07-29T08:03:54;8.13;;;3.30;;
43118;SDS011;28729;49.838;8.650;2022-07-29T08:07:56;6.13;;;3.30;;
43118;SDS011;28729;49.838;8.650;2022-07-29T08:11:58;5.55;;;3.50;;
43118;SDS011;28729;49.838;8.650;2022-07-29T08:20:04;6.10;;;3.40;;
43118;SDS011;28729;49.838;8.650;2022-07-29T08:24:09;6.38;;;3.28;;
43118;SDS011;28729;49.838;8.650;2022-07-29T08:28:30;7.25;;;3.55;;
43118;SDS011;28729;49.838;8.650;2022-07-29T08:32:32;7.78;;;3.30;;
43118;SDS011;28729;49.838;8.650;2022-07-29T08:36:54;7.03;;;3.40;;
43118;SDS011;28729;49.838;8.650;2022-07-29T08:40:56;5.00;;;3.15;;
43118;SDS011;28729;49.838;8.650;2022-07-29T08:44:59;7.03;;;3.25;;
43118;SDS011;28729;49.838;8.650;2022-07-29T08:49:01;8.23;;;3.40;;
43118;SDS011;28729;49.838;8.650;2022-07-29T08:53:03;6.90;;;3.53;;
43118;SDS011;28729;49.838;8.650;2022-07-29T08:57:06;5.45;;;3.47;;
43118;SDS011;28729;49.838;8.650;2022-07-29T09:01:10;7.88;;;3.47;;
43118;SDS011;28729;49.838;8.650;2022-07-29T09:05:15;9.55;;;3.67;;
43118;SDS011;28729;49.838;8.650;2022-07-29T09:09:17;5.43;;;3.63;;
43118;SDS011;28729;49.838;8.650;2022-07-29T09:13:18;10.52;;;4.60;;
43118;SDS011;28729;49.838;8.650;2022-07-29T09:21:56;7.15;;;3.35;;
43118;SDS011;28729;49.838;8.650;2022-07-29T09:26:05;6.47;;;3.90;;
43118;SDS011;28729;49.838;8.650;2022-07-29T09:30:10;7.40;;;3.72;;
43118;SDS011;28729;49.838;8.650;2022-07-29T09:34:27;6.47;;;3.75;;
43118;SDS011;28729;49.838;8.650;2022-07-29T09:38:31;6.07;;;3.63;;
43118;SDS011;28729;49.838;8.650;2022-07-29T09:42:33;7.20;;;3.88;;
43118;SDS011;28729;49.838;8.650;2022-07-29T09:46:35;5.20;;;3.42;;
43118;SDS011;28729;49.838;8.650;2022-07-29T09:50:40;7.35;;;3.90;;
43118;SDS011;28729;49.838;8.650;2022-07-29T09:54:43;5.85;;;3.70;;
43118;SDS011;28729;49.838;8.650;2022-07-29T09:58:46;8.57;;;4.32;;
43118;SDS011;28729;49.838;8.650;2022-07-29T10:02:48;6.28;;;3.95;;
43118;SDS011;28729;49.838;8.650;2022-07-29T10:06:59;5.00;;;4.10;;
43118;SDS011;28729;49.838;8.650;2022-07-29T10:11:12;6.72;;;4.03;;
43118;SDS011;28729;49.838;8.650;2022-07-29T10:15:15;9.45;;;4.38;;
43118;SDS011;28729;49.838;8.650;2022-07-29T10:19:17;7.13;;;4.28;;
43118;SDS011;28729;49.838;8.650;2022-07-29T10:23:19;6.85;;;4.13;;
43118;SDS011;28729;49.838;8.650;2022-07-29T10:27:21;5.18;;;3.78;;
43118;SDS011;28729;49.838;8.650;2022-07-29T10:31:28;7.85;;;4.30;;
43118;SDS011;28729;49.838;8.650;2022-07-29T10:44:24;6.68;;;3.85;;
43118;SDS011;28729;49.838;8.650;2022-07-29T10:48:27;9.27;;;4.18;;
43118;SDS011;28729;49.838;8.650;2022-07-29T10:56:51;7.43;;;4.35;;
43118;SDS011;28729;49.838;8.650;2022-07-29T11:00:53;6.65;;;4.05;;
43118;SDS011;28729;49.838;8.650;2022-07-29T11:04:58;9.57;;;4.45;;
43118;SDS011;28729;49.838;8.650;2022-07-29T11:09:17;7.65;;;4.20;;
43118;SDS011;28729;49.838;8.650;2022-07-29T11:21:54;8.80;;;4.05;;
43118;SDS011;28729;49.838;8.650;2022-07-29T11:30:45;5.13;;;4.25;;
43118;SDS011;28729;49.838;8.650;2022-07-29T11:39:25;8.93;;;4.72;;
43118;SDS011;28729;49.838;8.650;2022-07-29T11:43:50;10.77;;;4.70;;
43118;SDS011;28729;49.838;8.650;2022-07-29T11:47:54;6.47;;;4.25;;
43118;SDS011;28729;49.838;8.650;2022-07-29T11:52:06;10.38;;;4.90;;
43118;SDS011;28729;49.838;8.650;2022-07-29T11:56:11;9.60;;;4.55;;
43118;SDS011;28729;49.838;8.650;2022-07-29T12:00:21;8.43;;;4.47;;
43118;SDS011;28729;49.838;8.650;2022-07-29T12:04:24;7.25;;;4.55;;
43118;SDS011;28729;49.838;8.650;2022-07-29T12:08:27;6.78;;;5.30;;
43118;SDS011;28729;49.838;8.650;2022-07-29T12:12:30;8.00;;;4.55;;
43118;SDS011;28729;49.838;8.650;2022-07-29T12:16:35;6.00;;;5.18;;
43118;SDS011;28729;49.838;8.650;2022-07-29T12:20:38;7.93;;;5.22;;
43118;SDS011;28729;49.838;8.650;2022-07-29T12:24:43;7.47;;;5.05;;
43118;SDS011;28729;49.838;8.650;2022-07-29T12:28:48;8.77;;;5.30;;
43118;SDS011;28729;49.838;8.650;2022-07-29T12:32:55;7.63;;;4.85;;
43118;SDS011;28729;49.838;8.650;2022-07-29T12:36:56;6.00;;;5.30;;
43118;SDS011;28729;49.838;8.650;2022-07-29T12:40:58;6.63;;;5.05;;
43118;SDS011;28729;49.838;8.650;2022-07-29T12:45:00;5.70;;;5.03;;
43118;SDS011;28729;49.838;8.650;2022-07-29T12:49:02;6.47;;;4.80;;
43118;SDS011;28729;49.838;8.650;2022-07-29T12:53:09;6.28;;;4.30;;
43118;SDS011;28729;49.838;8.650;2022-07-29T12:57:12;5.00;;;4.30;;
43118;SDS011;28729;49.838;8.650;2022-07-29T13:01:20;5.32;;;4.18;;
43118;SDS011;28729;49.838;8.650;2022-07-29T13:05:22;7.95;;;4.22;;
43118;SDS011;28729;49.838;8.650;2022-07-29T13:09:35;6.53;;;4.30;;
43118;SDS011;28729;49.838;8.650;2022-07-29T13:13:50;7.50;;;4.03;;
43118;SDS011;28729;49.838;8.650;2022-07-29T13:22:32;7.07;;;4.20;;
43118;SDS011;28729;49.838;8.650;2022-07-29T13:26:34;7.85;;;4.10;;
43118;SDS011;28729;49.838;8.650;2022-07-29T13:30:36;5.75;;;4.43;;
43118;SDS011;28729;49.838;8.650;2022-07-29T13:34:44;7.15;;;4.60;;
43118;SDS011;28729;49.838;8.650;2022-07-29T13:38:46;6.32;;;4.10;;
43118;SDS011;28729;49.838;8.650;2022-07-29T13:42:48;7.85;;;4.68;;
43118;SDS011;28729;49.838;8.650;2022-07-29T13:46:50;5.55;;;4.07;;
43118;SDS011;28729;49.838;8.650;2022-07-29T13:50:52;5.60;;;4.20;;
43118;SDS011;28729;49.838;8.650;2022-07-29T13:54:53;5.20;;;4.10;;
43118;SDS011;28729;49.838;8.650;2022-07-29T13:58:55;8.25;;;4.45;;
43118;SDS011;28729;49.838;8.650;2022-07-29T14:02:58;4.72;;;3.90;;
43118;SDS011;28729;49.838;8.650;2022-07-29T14:07:00;7.43;;;3.72;;
43118;SDS011;28729;49.838;8.650;2022-07-29T14:11:04;6.15;;;4.20;;
43118;SDS011;28729;49.838;8.650;2022-07-29T14:19:07;6.25;;;3.90;;
43118;SDS011;28729;49.838;8.650;2022-07-29T14:23:09;7.35;;;3.83;;
43118;SDS011;28729;49.838;8.650;2022-07-29T14:27:13;5.15;;;3.67;;
43118;SDS011;28729;49.838;8.650;2022-07-29T14:31:15;6.10;;;3.97;;
43118;SDS011;28729;49.838;8.650;2022-07-29T14:35:17;9.20;;;3.55;;
43118;SDS011;28729;49.838;8.650;2022-07-29T14:39:19;7.47;;;3.67;;
43118;SDS011;28729;49.838;8.650;2022-07-29T14:43:21;10.07;;;3.95;;
43118;SDS011;28729;49.838;8.650;2022-07-29T14:47:23;5.72;;;3.78;;
43118;SDS011;28729;49.838;8.650;2022-07-29T14:55:32;8.40;;;4.22;;
43118;SDS011;28729;49.838;8.650;2022-07-29T14:59:34;6.63;;;4.15;;
43118;SDS011;28729;49.838;8.650;2022-07-29T15:03:37;8.60;;;3.80;;
43118;SDS011;28729;49.838;8.650;2022-07-29T15:07:39;6.82;;;3.90;;
43118;SDS011;28729;49.838;8.650;2022-07-29T15:11:41;5.68;;;4.10;;
43118;SDS011;28729;49.838;8.650;2022-07-29T15:15:42;11.23;;;4.18;;
43118;SDS011;28729;49.838;8.650;2022-07-29T15:19:47;7.13;;;3.92;;
43118;SDS011;28729;49.838;8.650;2022-07-29T15:27:50;5.47;;;3.92;;
43118;SDS011;28729;49.838;8.650;2022-07-29T15:31:55;6.63;;;3.72;;
43118;SDS011;28729;49.838;8.650;2022-07-29T15:35:58;6.78;;;4.00;;
43118;SDS011;28729;49.838;8.650;2022-07-29T15:39:59;8.50;;;4.70;;
43118;SDS011;28729;49.838;8.650;2022-07-29T15:48:04;6.50;;;3.95;;
43118;SDS011;28729;49.838;8.650;2022-07-29T15:52:08;5.20;;;3.97;;
43118;SDS011;28729;49.838;8.650;2022-07-29T15:56:12;6.47;;;3.95;;
43118;SDS011;28729;49.838;8.650;2022-07-29T16:00:14;7.20;;;3.75;;
43118;SDS011;28729;49.838;8.650;2022-07-29T16:04:18;7.45;;;3.90;;
43118;SDS011;28729;49.838;8.650;2022-07-29T16:08:20;7.07;;;4.10;;
43118;SDS011;28729;49.838;8.650;2022-07-29T16:12:21;9.30;;;3.90;;
43118;SDS011;28729;49.838;8.650;2022-07-29T16:16:23;4.53;;;3.53;;
43118;SDS011;28729;49.838;8.650;2022-07-29T16:20:25;8.32;;;3.83;;
43118;SDS011;28729;49.838;8.650;2022-07-29T16:24:27;5.40;;;3.72;;
43118;SDS011;28729;49.838;8.650;2022-07-29T16:28:30;6.97;;;4.32;;
43118;SDS011;28729;49.838;8.650;2022-07-29T16:32:31;7.68;;;4.45;;
43118;SDS011;28729;49.838;8.650;2022-07-29T16:36:33;10.90;;;4.18;;
43118;SDS011;28729;49.838;8.650;2022-07-29T16:40:35;8.00;;;4.20;;
43118;SDS011;28729;49.838;8.650;2022-07-29T16:44:37;5.28;;;4.18;;
43118;SDS011;28729;49.838;8.650;2022-07-29T16:48:39;5.07;;;3.90;;
43118;SDS011;28729;49.838;8.650;2022-07-29T16:52:41;7.13;;;4.38;;
43118;SDS011;28729;49.838;8.650;2022-07-29T16:56:43;5.60;;;4.00;;
43118;SDS011;28729;49.838;8.650;2022-07-29T17:00:45;6.07;;;4.20;;
43118;SDS011;28729;49.838;8.650;2022-07-29T17:04:46;5.03;;;3.67;;
43118;SDS011;28729;49.838;8.650;2022-07-29T17:08:48;4.97;;;3.58;;
43118;SDS011;28729;49.838;8.650;2022-07-29T17:12:50;4.35;;;3.65;;
43118;SDS011;28729;49.838;8.650;2022-07-29T17:16:53;4.45;;;3.50;;
43118;SDS011;28729;49.838;8.650;2022-07-29T17:21:02;5.28;;;3.20;;
43118;SDS011;28729;49.838;8.650;2022-07-29T17:25:04;5.10;;;3.65;;
43118;SDS011;28729;49.838;8.650;2022-07-29T17:29:06;3.70;;;3.22;;
43118;SDS011;28729;49.838;8.650;2022-07-29T17:33:08;4.70;;;3.43;;
43118;SDS011;28729;49.838;8.650;2022-07-29T17:37:10;3.93;;;3.10;;
43118;SDS011;28729;49.838;8.650;2022-07-29T17:45:14;5.03;;;3.35;;
43118;SDS011;28729;49.838;8.650;2022-07-29T17:49:15;5.63;;;3.40;;
43118;SDS011;28729;49.838;8.650;2022-07-29T17:53:17;6.45;;;3.70;;
43118;SDS011;28729;49.838;8.650;2022-07-29T17:57:19;6.45;;;3.83;;
43118;SDS011;28729;49.838;8.650;2022-07-29T18:01:21;5.10;;;3.27;;
43118;SDS011;28729;49.838;8.650;2022-07-29T18:05:22;5.03;;;3.50;;
43118;SDS011;28729;49.838;8.650;2022-07-29T18:09:25;5.80;;;3.67;;
43118;SDS011;28729;49.838;8.650;2022-07-29T18:13:27;6.50;;;4.07;;
43118;SDS011;28729;49.838;8.650;2022-07-29T18:17:29;6.60;;;4.30;;
43118;SDS011;28729;49.838;8.650;2022-07-29T18:21:50;7.53;;;4.15;;
43118;SDS011;28729;49.838;8.650;2022-07-29T18:25:56;5.85;;;3.75;;
43118;SDS011;28729;49.838;8.650;2022-07-29T18:29:58;6.60;;;4.45;;
43118;SDS011;28729;49.838;8.650;2022-07-29T18:34:05;5.85;;;3.85;;
43118;SDS011;28729;49.838;8.650;2022-07-29T18:38:06;5.07;;;3.77;;
43118;SDS011;28729;49.838;8.650;2022-07-29T18:42:08;8.20;;;3.60;;
43118;SDS011;28729;49.838;8.650;2022-07-29T18:46:10;7.85;;;3.83;;
43118;SDS011;28729;49.838;8.650;2022-07-29T18:50:14;7.70;;;3.80;;
43118;SDS011;28729;49.838;8.650;2022-07-29T18:54:17;6.97;;;4.55;;
43118;SDS011;28729;49.838;8.650;2022-07-29T18:58:21;5.72;;;4.00;;
43118;SDS011;28729;49.838;8.650;2022-07-29T19:02:38;10.20;;;4.30;;
43118;SDS011;28729;49.838;8.650;2022-07-29T19:06:42;6.43;;;4.35;;
43118;SDS011;28729;49.838;8.650;2022-07-29T19:10:44;7.03;;;4.32;;
43118;SDS011;28729;49.838;8.650;2022-07-29T19:14:46;6.38;;;4.13;;
43118;SDS011;28729;49.838;8.650;2022-07-29T19:18:50;7.05;;;5.18;;
43118;SDS011;28729;49.838;8.650;2022-07-29T19:22:52;5.95;;;4.45;;
43118;SDS011;28729;49.838;8.650;2022-07-29T19:26:54;9.85;;;4.68;;
43118;SDS011;28729;49.838;8.650;2022-07-29T19:30:57;7.43;;;4.40;;
43118;SDS011;28729;49.838;8.650;2022-07-29T19:34:59;4.93;;;4.10;;
43118;SDS011;28729;49.838;8.650;2022-07-29T19:39:19;7.10;;;4.63;;
43118;SDS011;28729;49.838;8.650;2022-07-29T19:43:35;7.43;;;5.07;;
43118;SDS011;28729;49.838;8.650;2022-07-29T19:47:52;5.95;;;4.70;;
43118;SDS011;28729;49.838;8.650;2022-07-29T19:52:01;5.32;;;4.60;;
43118;SDS011;28729;49.838;8.650;2022-07-29T21:17:44;7.68;;;4.78;;
43118;SDS011;28729;49.838;8.650;2022-07-29T21:21:47;6.25;;;5.22;;
43118;SDS011;28729;49.838;8.650;2022-07-29T21:25:49;8.23;;;5.70;;
43118;SDS011;28729;49.838;8.650;2022-07-29T21:29:50;7.30;;;5.50;;
43118;SDS011;28729;49.838;8.650;2022-07-29T21:33:52;9.57;;;6.28;;
43118;SDS011;28729;49.838;8.650;2022-07-29T21:37:54;10.18;;;5.70;;
43118;SDS011;28729;49.838;8.650;2022-07-29T21:41:56;7.40;;;5.88;;
43118;SDS011;28729;49.838;8.650;2022-07-29T21:45:58;8.00;;;5.93;;
43118;SDS011;28729;49.838;8.650;2022-07-29T21:54:02;7.38;;;5.43;;
43118;SDS011;28729;49.838;8.650;2022-07-29T21:58:04;7.03;;;5.63;;
43118;SDS011;28729;49.838;8.650;2022-07-29T22:02:06;8.53;;;6.10;;
43118;SDS011;28729;49.838;8.650;2022-07-29T22:06:08;9.73;;;5.47;;
43118;SDS011;28729;49.838;8.650;2022-07-29T22:10:18;6.20;;;4.93;;
43118;SDS011;28729;49.838;8.650;2022-07-29T22:14:20;6.17;;;5.10;;
43118;SDS011;28729;49.838;8.650;2022-07-29T22:18:22;9.35;;;5.60;;
43118;SDS011;28729;49.838;8.650;2022-07-29T22:22:24;6.25;;;5.20;;
43118;SDS011;28729;49.838;8.650;2022-07-29T22:26:25;7.15;;;5.25;;
43118;SDS011;28729;49.838;8.650;2022-07-29T22:30:27;6.63;;;5.45;;
43118;SDS011;28729;49.838;8.650;2022-07-29T22:34:29;6.90;;;5.03;;
43118;SDS011;28729;49.838;8.650;2022-07-29T22:38:38;7.20;;;5.45;;
43118;SDS011;28729;49.838;8.650;2022-07-29T22:42:42;9.27;;;5.68;;
43118;SDS011;28729;49.838;8.650;2022-07-29T22:46:44;8.73;;;5.32;;
43118;SDS011;28729;49.838;8.650;2022-07-29T22:50:45;7.40;;;5.47;;
43118;SDS011;28729;49.838;8.650;2022-07-29T22:54:47;9.45;;;6.13;;
43118;SDS011;28729;49.838;8.650;2022-07-29T22:58:49;8.60;;;5.43;;
43118;SDS011;28729;49.838;8.650;2022-07-29T23:02:51;6.87;;;5.17;;
43118;SDS011;28729;49.838;8.650;2022-07-29T23:06:52;10.20;;;5.63;;
43118;SDS011;28729;49.838;8.650;2022-07-29T23:10:54;6.10;;;5.18;;
43118;SDS011;28729;49.838;8.650;2022-07-29T23:14:55;8.50;;;5.43;;
43118;SDS011;28729;49.838;8.650;2022-07-29T23:18:57;7.00;;;5.18;;
43118;SDS011;28729;49.838;8.650;2022-07-29T23:22:59;6.10;;;5.07;;
43118;SDS011;28729;49.838;8.650;2022-07-29T23:27:00;10.07;;;5.30;;
43118;SDS011;28729;49.838;8.650;2022-07-29T23:31:03;7.32;;;5.57;;
43118;SDS011;28729;49.838;8.650;2022-07-29T23:35:04;6.55;;;5.47;;
43118;SDS011;28729;49.838;8.650;2022-07-29T23:39:07;6.20;;;5.25;;
43118;SDS011;28729;49.838;8.650;2022-07-29T23:43:11;9.23;;;5.30;;
43118;SDS011;28729;49.838;8.650;2022-07-29T23:47:13;7.75;;;5.32;;
43118;SDS011;28729;49.838;8.650;2022-07-29T23:51:14;8.98;;;5.78;;
43118;SDS011;28729;49.838;8.650;2022-07-29T23:55:16;7.25;;;5.47;;
43118;SDS011;28729;49.838;8.650;2022-07-29T23:59:38;7.80;;;5.23;;
